Time;durP1;ratioP1;P1;durP2;ratioP2;P2;SDS_P1;SDS_P2;PMS_P1;PMS_P2;Temp;Humidity;BMP_temperature;BMP_pressure;BME280_temperature;BME280_humidity;BME280_pressure;Samples;Min_cycle;Max_cycle;Signal;HPM_P1;HPM_P2
2022/05/19 00:02:14;;;;;;;;;;;;;;;;;;4958804;28;19930;-73
2022/05/19 00:04:40;;;;;;;;;;;;;;;;;;4976088;28;19984;-73
2022/05/19 00:07:06;;;;;;;;;;;;;;;;;;4958725;28;20357;-73
2022/05/19 00:09:32;;;;;;;;;;;;;;;;;;4976187;28;19922;-73
2022/05/19 00:11:58;;;;;;;;;;;;;;;;;;4976237;28;19922;-73
2022/05/19 00:14:25;;;;;;;;;;;;;;;;;;4958765;28;19917;-73
2022/05/19 00:16:56;;;;;;;;;;;;;;;;;;4976231;28;19926;-73
2022/05/19 00:19:22;;;;;;;;;;;;;;;;;;4975727;28;19928;-73
2022/05/19 00:21:48;;;;;;;;;;;;;;;;;;4975748;28;20004;-73
2022/05/19 00:24:13;;;;;;;;;;;;;;;;;;4975601;28;19922;-73
2022/05/19 00:26:39;;;;;;;;;;;;;;;;;;4976036;28;19926;-73
2022/05/19 00:29:05;;;;;;;;;;;;;;;;;;4976091;28;19984;-73
2022/05/19 00:31:32;;;;;;;;;;;;;;;;;;4975762;28;19922;-73
2022/05/19 00:33:58;;;;;;;;;;;;;;;;;;4975902;28;19968;-72
2022/05/19 00:36:24;;;;;;;;;;;;;;;;;;4942538;28;20057;-73
2022/05/19 00:38:50;;;;;;;;;;;;;;;;;;4975638;28;20583;-72
2022/05/19 00:41:16;;;;;;;;;;;;;;;;;;4975433;28;19922;-73
2022/05/19 00:43:42;;;;;;;;;;;;;;;;;;4975388;28;19922;-73
2022/05/19 00:46:08;;;;;;;;;;;;;;;;;;4975291;28;19937;-72
2022/05/19 00:48:34;;;;;;;;;;;;;;;;;;4975336;28;20430;-72
2022/05/19 00:51:00;;;;;;;;;;;;;;;;;;4958532;28;20001;-73
2022/05/19 00:53:26;;;;;;;;;;;;;;;;;;4975216;28;19925;-72
2022/05/19 00:55:52;;;;;;;;;;;;;;;;;;4975371;28;19922;-72
2022/05/19 00:58:18;;;;;;;;;;;;;;;;;;4975054;28;20278;-72
2022/05/19 01:00:45;;;;;;;;;;;;;;;;;;4958228;28;20009;-72
2022/05/19 01:03:11;;;;;;;;;;;;;;;;;;4974994;28;19973;-72
2022/05/19 01:05:37;;;;;;;;;;;;;;;;;;4975001;28;20397;-72
2022/05/19 01:08:03;;;;;;;;;;;;;;;;;;4975221;28;20361;-72
2022/05/19 01:10:28;;;;;;;;;;;;;;;;;;4974670;28;19973;-72
2022/05/19 01:12:54;;;;;;;;;;;;;;;;;;4957592;28;19922;-72
2022/05/19 01:15:20;;;;;;;;;;;;;;;;;;4974419;28;19929;-72
2022/05/19 01:17:46;;;;;;;;;;;;;;;;;;4975326;28;19922;-72
2022/05/19 01:20:12;;;;;;;;;;;;;;;;;;4975152;28;20262;-72
2022/05/19 01:22:38;;;;;;;;;;;;;;;;;;4957413;28;19922;-73
2022/05/19 01:25:04;;;;;;;;;;;;;;;;;;4975156;28;19984;-72
2022/05/19 01:27:30;;;;;;;;;;;;;;;;;;4974055;28;19929;-72
2022/05/19 01:29:56;;;;;;;;;;;;;;;;;;4974677;28;19922;-72
2022/05/19 01:32:22;;;;;;;;;;;;;;;;;;4974186;28;19965;-72
2022/05/19 01:34:48;;;;;;;;;;;;;;;;;;4957392;28;20016;-72
2022/05/19 01:37:14;;;;;;;;;;;;;;;;;;4974778;28;19929;-72
2022/05/19 01:39:40;;;;;;;;;;;;;;;;;;4974357;28;19972;-73
2022/05/19 01:42:06;;;;;;;;;;;;;;;;;;4957312;28;20346;-72
2022/05/19 01:44:32;;;;;;;;;;;;;;;;;;4956844;28;20280;-72
2022/05/19 01:46:58;;;;;;;;;;;;;;;;;;4957188;28;20362;-71
2022/05/19 01:49:24;;;;;;;;;;;;;;;;;;4973968;28;19922;-72
2022/05/19 01:51:50;;;;;;;;;;;;;;;;;;4956981;28;20362;-72
2022/05/19 01:54:16;;;;;;;;;;;;;;;;;;4957218;28;20411;-72
2022/05/19 01:56:42;;;;;;;;;;;;;;;;;;4974003;28;20004;-72
2022/05/19 01:59:08;;;;;;;;;;;;;;;;;;4974157;28;19922;-73
2022/05/19 02:01:34;;;;;;;;;;;;;;;;;;4973995;28;19922;-72
2022/05/19 02:04:00;;;;;;;;;;;;;;;;;;4957080;28;19922;-72
2022/05/19 02:06:26;;;;;;;;;;;;;;;;;;4973761;28;19984;-73
2022/05/19 02:08:53;;;;;;;;;;;;;;;;;;4973967;28;19922;-72
2022/05/19 02:11:20;;;;;;;;;;;;;;;;;;4957007;28;19922;-73
2022/05/19 02:13:46;;;;;;;;;;;;;;;;;;4973338;28;19969;-73
2022/05/19 02:16:13;;;;;;;;;;;;;;;;;;4974091;28;19958;-73
2022/05/19 02:18:39;;;;;;;;;;;;;;;;;;4973595;28;20113;-73
2022/05/19 02:21:05;;;;;;;;;;;;;;;;;;4973857;28;20357;-72
2022/05/19 02:23:31;;;;;;;;;;;;;;;;;;4973405;28;20012;-72
2022/05/19 02:25:57;;;;;;;;;;;;;;;;;;4973824;28;19922;-72
2022/05/19 02:28:23;;;;;;;;;;;;;;;;;;4973195;28;20358;-73
2022/05/19 02:30:49;;;;;;;;;;;;;;;;;;4973847;28;19929;-73
2022/05/19 02:33:15;;;;;;;;;;;;;;;;;;4973516;28;19922;-73
2022/05/19 02:35:41;;;;;;;;;;;;;;;;;;4973279;28;19926;-72
2022/05/19 02:38:07;;;;;;;;;;;;;;;;;;4973591;28;19922;-73
2022/05/19 02:40:33;;;;;;;;;;;;;;;;;;4972925;28;19922;-72
2022/05/19 02:42:59;;;;;;;;;;;;;;;;;;4973538;28;19972;-73
2022/05/19 02:45:25;;;;;;;;;;;;;;;;;;4973222;28;19922;-73
2022/05/19 02:47:51;;;;;;;;;;;;;;;;;;4973720;28;20073;-72
2022/05/19 02:50:16;;;;;;;;;;;;;;;;;;4972074;28;20300;-73
2022/05/19 02:52:42;;;;;;;;;;;;;;;;;;4972697;28;19922;-72
2022/05/19 02:55:08;;;;;;;;;;;;;;;;;;4973372;28;19992;-73
2022/05/19 02:57:34;;;;;;;;;;;;;;;;;;4973005;28;20570;-73
2022/05/19 03:00:00;;;;;;;;;;;;;;;;;;4973127;28;20378;-72
2022/05/19 03:02:26;;;;;;;;;;;;;;;;;;4973042;28;19922;-72
2022/05/19 03:04:52;;;;;;;;;;;;;;;;;;4973138;28;19977;-73
2022/05/19 03:07:19;;;;;;;;;;;;;;;;;;4973040;28;19922;-72
2022/05/19 03:09:45;;;;;;;;;;;;;;;;;;4972916;28;20466;-73
2022/05/19 03:12:11;;;;;;;;;;;;;;;;;;4973099;28;19933;-73
2022/05/19 03:14:37;;;;;;;;;;;;;;;;;;4972894;28;20285;-73
2022/05/19 03:17:03;;;;;;;;;;;;;;;;;;4973336;28;19944;-72
2022/05/19 03:19:29;;;;;;;;;;;;;;;;;;4972640;28;19926;-73
2022/05/19 03:21:55;;;;;;;;;;;;;;;;;;4940181;28;20024;-72
2022/05/19 03:24:21;;;;;;;;;;;;;;;;;;4972858;28;19926;-72
2022/05/19 03:26:47;;;;;;;;;;;;;;;;;;4976662;28;19922;-72
2022/05/19 03:29:13;;;;;;;;;;;;;;;;;;4976968;28;20013;-72
2022/05/19 03:31:39;;;;;;;;;;;;;;;;;;4959558;28;19922;-73
2022/05/19 03:34:05;;;;;;;;;;;;;;;;;;4976583;28;19968;-73
2022/05/19 03:36:31;;;;;;;;;;;;;;;;;;4976578;28;19980;-73
2022/05/19 03:38:57;;;;;;;;;;;;;;;;;;4976773;28;19922;-72
2022/05/19 03:41:23;;;;;;;;;;;;;;;;;;4976773;28;19983;-72
2022/05/19 03:43:49;;;;;;;;;;;;;;;;;;4959161;28;19929;-72
2022/05/19 03:46:14;;;;;;;;;;;;;;;;;;4976044;28;19928;-72
2022/05/19 03:48:40;;;;;;;;;;;;;;;;;;4976492;28;19932;-73
2022/05/19 03:51:06;;;;;;;;;;;;;;;;;;4976473;28;19921;-72
2022/05/19 03:53:32;;;;;;;;;;;;;;;;;;4976255;28;19922;-72
2022/05/19 03:55:58;;;;;;;;;;;;;;;;;;4976344;28;19977;-72
2022/05/19 03:58:24;;;;;;;;;;;;;;;;;;4976266;28;19969;-72
2022/05/19 04:00:50;;;;;;;;;;;;;;;;;;4976143;28;20039;-72
2022/05/19 04:03:16;;;;;;;;;;;;;;;;;;4959216;28;19922;-72
2022/05/19 04:05:42;;;;;;;;;;;;;;;;;;4975879;28;19928;-73
2022/05/19 04:08:08;;;;;;;;;;;;;;;;;;4976311;28;19953;-73
2022/05/19 04:10:34;;;;;;;;;;;;;;;;;;4958539;28;19922;-73
2022/05/19 04:13:00;;;;;;;;;;;;;;;;;;4976344;28;20293;-73
2022/05/19 04:15:26;;;;;;;;;;;;;;;;;;4976201;28;19993;-73
2022/05/19 04:17:52;;;;;;;;;;;;;;;;;;4975796;28;19997;-73
2022/05/19 04:20:18;;;;;;;;;;;;;;;;;;4959201;28;19922;-72
2022/05/19 04:22:44;;;;;;;;;;;;;;;;;;4975606;28;19974;-73
2022/05/19 04:25:10;;;;;;;;;;;;;;;;;;4975644;28;19929;-73
2022/05/19 04:27:36;;;;;;;;;;;;;;;;;;4975682;28;19976;-73
2022/05/19 04:30:01;;;;;;;;;;;;;;;;;;4974813;28;19922;-75
2022/05/19 04:32:27;;;;;;;;;;;;;;;;;;4974343;28;19933;-74
2022/05/19 04:34:53;;;;;;;;;;;;;;;;;;4958264;28;19926;-73
2022/05/19 04:37:19;;;;;;;;;;;;;;;;;;4974322;28;19922;-73
2022/05/19 04:39:45;;;;;;;;;;;;;;;;;;4957836;28;20001;-74
2022/05/19 04:42:11;;;;;;;;;;;;;;;;;;4975554;28;19976;-74
2022/05/19 04:44:37;;;;;;;;;;;;;;;;;;4975455;28;19922;-75
2022/05/19 04:47:03;;;;;;;;;;;;;;;;;;4957872;28;20358;-74
2022/05/19 04:49:29;;;;;;;;;;;;;;;;;;4974305;28;20333;-74
2022/05/19 04:51:55;;;;;;;;;;;;;;;;;;4973828;28;20106;-74
2022/05/19 04:54:21;;;;;;;;;;;;;;;;;;4974513;28;19949;-74
2022/05/19 04:56:47;;;;;;;;;;;;;;;;;;4973940;28;20289;-75
2022/05/19 04:59:16;;;;;;;;;;;;;;;;;;4973870;28;20188;-73
2022/05/19 05:01:42;;;;;;;;;;;;;;;;;;4975276;28;19922;-74
2022/05/19 05:04:08;;;;;;;;;;;;;;;;;;4975170;28;19922;-74
2022/05/19 05:06:34;;;;;;;;;;;;;;;;;;4975517;28;20073;-76
2022/05/19 05:09:00;;;;;;;;;;;;;;;;;;4957723;28;19945;-76
2022/05/19 05:11:26;;;;;;;;;;;;;;;;;;4974334;28;19965;-77
2022/05/19 05:13:51;;;;;;;;;;;;;;;;;;4974581;28;19926;-75
2022/05/19 05:16:17;;;;;;;;;;;;;;;;;;4975139;28;19922;-74
2022/05/19 05:18:43;;;;;;;;;;;;;;;;;;4975303;28;19922;-75
2022/05/19 05:21:13;;;;;;;;;;;;;;;;;;4958051;28;19953;-75
2022/05/19 05:23:38;;;;;;;;;;;;;;;;;;4957965;28;19973;-75
2022/05/19 05:26:06;;;;;;;;;;;;;;;;;;4975475;28;19922;-75
2022/05/19 05:28:32;;;;;;;;;;;;;;;;;;4974840;28;20369;-75
2022/05/19 05:30:58;;;;;;;;;;;;;;;;;;4974345;28;19929;-75
2022/05/19 05:33:24;;;;;;;;;;;;;;;;;;4975047;28;19930;-75
2022/05/19 05:35:50;;;;;;;;;;;;;;;;;;4974104;28;19941;-75
2022/05/19 05:38:17;;;;;;;;;;;;;;;;;;4957647;28;20033;-75
2022/05/19 05:40:43;;;;;;;;;;;;;;;;;;4974101;28;20016;-75
2022/05/19 05:43:09;;;;;;;;;;;;;;;;;;4974220;28;19926;-74
2022/05/19 05:45:35;;;;;;;;;;;;;;;;;;4973498;28;20020;-75
2022/05/19 05:48:01;;;;;;;;;;;;;;;;;;4973041;28;20217;-75
2022/05/19 05:50:27;;;;;;;;;;;;;;;;;;4974255;28;19922;-74
2022/05/19 05:52:53;;;;;;;;;;;;;;;;;;4972542;28;19917;-73
2022/05/19 05:55:19;;;;;;;;;;;;;;;;;;4974420;28;19928;-75
2022/05/19 05:57:45;;;;;;;;;;;;;;;;;;4956476;28;19969;-74
2022/05/19 06:00:11;;;;;;;;;;;;;;;;;;4974176;28;19926;-74
2022/05/19 06:02:37;;;;;;;;;;;;;;;;;;4974352;28;19932;-74
2022/05/19 06:05:03;;;;;;;;;;;;;;;;;;4956851;28;19925;-75
2022/05/19 06:07:29;;;;;;;;;;;;;;;;;;4974101;28;19929;-75
2022/05/19 06:09:56;;;;;;;;;;;;;;;;;;4972981;28;19926;-75
2022/05/19 06:12:22;;;;;;;;;;;;;;;;;;4973701;28;19929;-72
2022/05/19 06:14:48;;;;;;;;;;;;;;;;;;4973508;28;19922;-74
2022/05/19 06:17:14;;;;;;;;;;;;;;;;;;4973158;28;19922;-75
2022/05/19 06:19:40;;;;;;;;;;;;;;;;;;4955827;28;20294;-76
2022/05/19 06:22:06;;;;;;;;;;;;;;;;;;4972322;28;19929;-74
2022/05/19 06:24:33;;;;;;;;;;;;;;;;;;4955797;28;20016;-75
2022/05/19 06:26:58;;;;;;;;;;;;;;;;;;4973031;28;19922;-75
2022/05/19 06:29:24;;;;;;;;;;;;;;;;;;4973526;28;20357;-75
2022/05/19 06:31:50;;;;;;;;;;;;;;;;;;4956043;28;19926;-74
2022/05/19 06:34:16;;;;;;;;;;;;;;;;;;4955561;28;20003;-75
2022/05/19 06:36:42;;;;;;;;;;;;;;;;;;4972458;28;19922;-75
2022/05/19 06:39:08;;;;;;;;;;;;;;;;;;4955622;28;20542;-75
2022/05/19 06:44:19;;;;;;;;;;;;;;;;;;4954405;28;19922;-74
2022/05/19 06:46:45;;;;;;;;;;;;;;;;;;4971663;28;19922;-74
2022/05/19 06:49:11;;;;;;;;;;;;;;;;;;4973960;28;20012;-74
2022/05/19 06:51:37;;;;;;;;;;;;;;;;;;4955965;28;19968;-73
2022/05/19 06:54:03;;;;;;;;;;;;;;;;;;4972910;28;19917;-75
2022/05/19 06:56:29;;;;;;;;;;;;;;;;;;4973219;28;19922;-75
2022/05/19 06:58:56;;;;;;;;;;;;;;;;;;4973422;28;19922;-73
2022/05/19 07:01:22;;;;;;;;;;;;;;;;;;4972776;28;20151;-73
2022/05/19 07:03:48;;;;;;;;;;;;;;;;;;4972997;28;20285;-73
2022/05/19 07:06:14;;;;;;;;;;;;;;;;;;4973304;28;19977;-74
2022/05/19 07:08:40;;;;;;;;;;;;;;;;;;4940361;28;19926;-74
2022/05/19 07:11:06;;;;;;;;;;;;;;;;;;4973359;28;19930;-73
2022/05/19 07:13:32;;;;;;;;;;;;;;;;;;4971939;28;20482;-73
2022/05/19 07:15:59;;;;;;;;;;;;;;;;;;4954901;28;20433;-73
2022/05/19 07:18:26;;;;;;;;;;;;;;;;;;4972221;28;19926;-74
2022/05/19 07:20:52;;;;;;;;;;;;;;;;;;4972568;28;19929;-73
2022/05/19 07:23:20;;;;;;;;;;;;;;;;;;4955824;28;19922;-73
2022/05/19 07:25:46;;;;;;;;;;;;;;;;;;4970674;28;19976;-74
2022/05/19 07:28:12;;;;;;;;;;;;;;;;;;4973150;28;19921;-74
2022/05/19 07:30:38;;;;;;;;;;;;;;;;;;4972836;28;19922;-73
2022/05/19 07:33:04;;;;;;;;;;;;;;;;;;4972819;28;19922;-74
2022/05/19 07:35:30;;;;;;;;;;;;;;;;;;4973256;28;19929;-74
2022/05/19 07:37:56;;;;;;;;;;;;;;;;;;4971995;28;19921;-74
2022/05/19 07:40:22;;;;;;;;;;;;;;;;;;4972948;28;19929;-73
2022/05/19 07:42:48;;;;;;;;;;;;;;;;;;4972588;28;19922;-74
2022/05/19 07:45:15;;;;;;;;;;;;;;;;;;4972756;28;19922;-73
2022/05/19 07:47:41;;;;;;;;;;;;;;;;;;4972849;28;19929;-73
2022/05/19 07:50:06;;;;;;;;;;;;;;;;;;4956148;28;19926;-75
2022/05/19 07:52:32;;;;;;;;;;;;;;;;;;4972619;28;19929;-73
2022/05/19 07:54:58;;;;;;;;;;;;;;;;;;4972293;28;20446;-73
2022/05/19 07:57:24;;;;;;;;;;;;;;;;;;4955008;28;20365;-74
2022/05/19 07:59:51;;;;;;;;;;;;;;;;;;4955730;28;19961;-74
2022/05/19 08:02:17;;;;;;;;;;;;;;;;;;4954727;28;19923;-73
2022/05/19 08:04:43;;;;;;;;;;;;;;;;;;4970050;28;19917;-75
2022/05/19 08:07:09;;;;;;;;;;;;;;;;;;4970054;28;19981;-76
2022/05/19 08:15:34;;;;;;;;;;;;;;;;;;4972078;28;19969;-77
2022/05/19 08:17:50;;;;;;;;;;;;;;;;;;4958819;28;19922;-76
2022/05/19 08:20:18;;;;;;;;;;;;;;;;;;4974788;28;19944;-76
2022/05/19 08:22:44;;;;;;;;;;;;;;;;;;4958647;28;19922;-78
2022/05/19 08:25:10;;;;;;;;;;;;;;;;;;4974936;28;19925;-76
2022/05/19 08:27:35;;;;;;;;;;;;;;;;;;4941423;28;19922;-76
2022/05/19 08:30:01;;;;;;;;;;;;;;;;;;4957398;28;19922;-76
2022/05/19 08:32:27;;;;;;;;;;;;;;;;;;4958904;28;20020;-76
2022/05/19 08:34:53;;;;;;;;;;;;;;;;;;4974509;28;20381;-75
2022/05/19 08:37:19;;;;;;;;;;;;;;;;;;4957671;28;19922;-76
2022/05/19 08:39:45;;;;;;;;;;;;;;;;;;4957780;28;19969;-76
2022/05/19 08:42:12;;;;;;;;;;;;;;;;;;4957658;28;19921;-76
2022/05/19 08:44:38;;;;;;;;;;;;;;;;;;4975604;28;20281;-75
2022/05/19 08:47:04;;;;;;;;;;;;;;;;;;4973410;28;20008;-74
2022/05/19 08:49:30;;;;;;;;;;;;;;;;;;4974576;28;19969;-74
2022/05/19 08:51:56;;;;;;;;;;;;;;;;;;4956719;28;19922;-74
2022/05/19 08:54:23;;;;;;;;;;;;;;;;;;4975018;28;19922;-74
2022/05/19 08:56:49;;;;;;;;;;;;;;;;;;4958229;28;19929;-75
2022/05/19 08:59:15;;;;;;;;;;;;;;;;;;4957321;28;19921;-75
2022/05/19 09:01:41;;;;;;;;;;;;;;;;;;4974930;28;20277;-75
2022/05/19 09:04:07;;;;;;;;;;;;;;;;;;4974837;28;19929;-74
2022/05/19 09:06:33;;;;;;;;;;;;;;;;;;4975349;28;20017;-76
2022/05/19 09:08:59;;;;;;;;;;;;;;;;;;4958384;28;19929;-75
2022/05/19 09:11:25;;;;;;;;;;;;;;;;;;4957963;28;19925;-74
2022/05/19 09:13:51;;;;;;;;;;;;;;;;;;4974651;28;19926;-75
2022/05/19 09:16:17;;;;;;;;;;;;;;;;;;4958338;28;19921;-75
2022/05/19 09:18:43;;;;;;;;;;;;;;;;;;4974910;28;20255;-77
2022/05/19 09:21:09;;;;;;;;;;;;;;;;;;4957199;28;20023;-76
2022/05/19 09:23:35;;;;;;;;;;;;;;;;;;4974674;28;19922;-78
2022/05/19 09:26:01;;;;;;;;;;;;;;;;;;4956730;28;19973;-74
2022/05/19 09:28:27;;;;;;;;;;;;;;;;;;4958364;28;19928;-75
2022/05/19 09:30:54;;;;;;;;;;;;;;;;;;4974532;28;19921;-74
2022/05/19 09:33:20;;;;;;;;;;;;;;;;;;4974604;28;19987;-75
2022/05/19 09:35:47;;;;;;;;;;;;;;;;;;4973282;28;19977;-75
2022/05/19 09:38:16;;;;;;;;;;;;;;;;;;4939988;28;19929;-74
2022/05/19 09:40:42;;;;;;;;;;;;;;;;;;4973925;28;20408;-75
2022/05/19 09:43:08;;;;;;;;;;;;;;;;;;4973326;28;19968;-75
2022/05/19 09:45:34;;;;;;;;;;;;;;;;;;4973540;28;20025;-77
2022/05/19 09:48:03;;;;;;;;;;;;;;;;;;4974318;28;19922;-76
2022/05/19 09:50:31;;;;;;;;;;;;;;;;;;4974201;28;19922;-77
2022/05/19 09:52:57;;;;;;;;;;;;;;;;;;4972961;28;19922;-75
2022/05/19 09:55:24;;;;;;;;;;;;;;;;;;4955450;28;20012;-75
2022/05/19 09:57:51;;;;;;;;;;;;;;;;;;4973155;28;19985;-74
2022/05/19 10:00:18;;;;;;;;;;;;;;;;;;4956869;28;19922;-74
2022/05/19 10:02:44;;;;;;;;;;;;;;;;;;4957249;28;19945;-74
2022/05/19 10:05:10;;;;;;;;;;;;;;;;;;4956602;28;19922;-74
2022/05/19 10:07:36;;;;;;;;;;;;;;;;;;4974052;28;19922;-75
2022/05/19 10:10:02;;;;;;;;;;;;;;;;;;4956969;28;19922;-75
2022/05/19 10:12:28;;;;;;;;;;;;;;;;;;4956062;28;19928;-76
2022/05/19 10:14:54;;;;;;;;;;;;;;;;;;4973909;28;19925;-76
2022/05/19 10:17:21;;;;;;;;;;;;;;;;;;4973865;28;19918;-75
2022/05/19 10:19:47;;;;;;;;;;;;;;;;;;4972898;28;19922;-74
2022/05/19 10:22:13;;;;;;;;;;;;;;;;;;4972326;28;19969;-74
2022/05/19 10:24:39;;;;;;;;;;;;;;;;;;4955673;28;19928;-76
2022/05/19 10:32:34;;;;;;;;;;;;;;;;;;4973431;28;20285;-73
2022/05/19 10:35:00;;;;;;;;;;;;;;;;;;4972890;28;19922;-73
2022/05/19 10:37:26;;;;;;;;;;;;;;;;;;4973591;28;20429;-72
2022/05/19 10:39:52;;;;;;;;;;;;;;;;;;4972306;28;19926;-72
2022/05/19 10:42:21;;;;;;;;;;;;;;;;;;4972732;28;19929;-72
2022/05/19 10:44:47;;;;;;;;;;;;;;;;;;4973197;28;19928;-72
2022/05/19 10:47:13;;;;;;;;;;;;;;;;;;4973227;28;20320;-72
2022/05/19 10:49:39;;;;;;;;;;;;;;;;;;4973570;28;19921;-73
2022/05/19 10:52:05;;;;;;;;;;;;;;;;;;4973534;28;19969;-73
2022/05/19 10:54:31;;;;;;;;;;;;;;;;;;4957145;28;19980;-74
2022/05/19 10:56:56;;;;;;;;;;;;;;;;;;4973419;28;19929;-74
2022/05/19 10:59:22;;;;;;;;;;;;;;;;;;4973354;28;19935;-72
2022/05/19 11:01:48;;;;;;;;;;;;;;;;;;4973214;28;19930;-73
2022/05/19 11:04:14;;;;;;;;;;;;;;;;;;4973433;28;20392;-74
2022/05/19 11:06:40;;;;;;;;;;;;;;;;;;4973500;28;19986;-75
2022/05/19 11:09:06;;;;;;;;;;;;;;;;;;4954781;28;20017;-74
2022/05/19 11:11:32;;;;;;;;;;;;;;;;;;4972134;28;19918;-73
2022/05/19 11:13:58;;;;;;;;;;;;;;;;;;4972989;28;19957;-73
2022/05/19 11:16:24;;;;;;;;;;;;;;;;;;4969865;28;19978;-75
2022/05/19 11:18:50;;;;;;;;;;;;;;;;;;4972762;28;19922;-74
2022/05/19 11:21:16;;;;;;;;;;;;;;;;;;4971548;28;19926;-75
2022/05/19 11:23:43;;;;;;;;;;;;;;;;;;4972399;28;20353;-74
2022/05/19 11:26:25;;;;;;;;;;;;;;;;;;4971771;28;19922;-74
2022/05/19 11:28:51;;;;;;;;;;;;;;;;;;4972236;28;20063;-75
2022/05/19 11:31:17;;;;;;;;;;;;;;;;;;4973067;28;19926;-75
2022/05/19 11:33:43;;;;;;;;;;;;;;;;;;4973264;28;20420;-75
2022/05/19 11:36:09;;;;;;;;;;;;;;;;;;4973172;28;20384;-75
2022/05/19 11:38:36;;;;;;;;;;;;;;;;;;4973485;28;19929;-75
2022/05/19 11:41:02;;;;;;;;;;;;;;;;;;4972855;28;19973;-75
2022/05/19 11:43:28;;;;;;;;;;;;;;;;;;4940262;28;19918;-75
2022/05/19 11:45:54;;;;;;;;;;;;;;;;;;4955082;28;20274;-75
2022/05/19 11:56:34;;;;;;;;;;;;;;;;;;4976672;28;19926;-75
2022/05/19 11:59:00;;;;;;;;;;;;;;;;;;4959594;28;19972;-74
2022/05/19 12:01:26;;;;;;;;;;;;;;;;;;4976877;28;19921;-75
2022/05/19 12:03:52;;;;;;;;;;;;;;;;;;4976289;28;20385;-75
2022/05/19 12:06:18;;;;;;;;;;;;;;;;;;4943204;28;19929;-74
2022/05/19 12:08:44;;;;;;;;;;;;;;;;;;4958577;28;19922;-76
2022/05/19 12:11:09;;;;;;;;;;;;;;;;;;4974560;28;19985;-77
2022/05/19 12:13:35;;;;;;;;;;;;;;;;;;4975811;28;19922;-74
2022/05/19 12:16:01;;;;;;;;;;;;;;;;;;4975604;28;19933;-74
2022/05/19 12:18:27;;;;;;;;;;;;;;;;;;4975981;28;19922;-75
2022/05/19 12:20:53;;;;;;;;;;;;;;;;;;4975947;28;19922;-74
2022/05/19 12:23:20;;;;;;;;;;;;;;;;;;4974749;28;19925;-74
2022/05/19 12:25:45;;;;;;;;;;;;;;;;;;4957541;28;19921;-74
2022/05/19 12:28:11;;;;;;;;;;;;;;;;;;4957450;28;20419;-77
2022/05/19 12:33:22;;;;;;;;;;;;;;;;;;4975505;28;19929;-74
2022/05/19 12:35:48;;;;;;;;;;;;;;;;;;4958610;28;19984;-74
2022/05/19 12:38:14;;;;;;;;;;;;;;;;;;4976272;28;19984;-74
2022/05/19 12:40:40;;;;;;;;;;;;;;;;;;4976445;28;19933;-74
2022/05/19 12:43:06;;;;;;;;;;;;;;;;;;4957821;28;19922;-73
2022/05/19 12:45:32;;;;;;;;;;;;;;;;;;4974507;28;19945;-76
2022/05/19 12:47:58;;;;;;;;;;;;;;;;;;4973689;28;20359;-75
2022/05/19 12:50:25;;;;;;;;;;;;;;;;;;4973673;28;20376;-76
2022/05/19 12:52:51;;;;;;;;;;;;;;;;;;4973469;28;19926;-75
2022/05/19 12:55:17;;;;;;;;;;;;;;;;;;4972299;28;19929;-76
2022/05/19 12:57:43;;;;;;;;;;;;;;;;;;4955747;28;19922;-77
2022/05/19 13:00:09;;;;;;;;;;;;;;;;;;4958444;28;19922;-76
2022/05/19 13:02:35;;;;;;;;;;;;;;;;;;4957002;28;20426;-76
2022/05/19 13:05:01;;;;;;;;;;;;;;;;;;4956462;28;20424;-76
2022/05/19 13:07:28;;;;;;;;;;;;;;;;;;4939503;28;20365;-76
2022/05/19 13:09:54;;;;;;;;;;;;;;;;;;4941072;28;19929;-75
2022/05/19 13:12:20;;;;;;;;;;;;;;;;;;4974605;28;19922;-76
2022/05/19 13:14:47;;;;;;;;;;;;;;;;;;4958143;28;20025;-76
2022/05/19 13:17:13;;;;;;;;;;;;;;;;;;4957864;28;19922;-75
2022/05/19 13:19:38;;;;;;;;;;;;;;;;;;4957640;28;19922;-76
2022/05/19 13:22:06;;;;;;;;;;;;;;;;;;4958070;28;19986;-75
2022/05/19 13:24:32;;;;;;;;;;;;;;;;;;4974280;28;19926;-76
2022/05/19 13:32:29;;;;;;;;;;;;;;;;;;4975183;28;20301;-74
2022/05/19 13:34:55;;;;;;;;;;;;;;;;;;4974543;28;20440;-74
2022/05/19 13:37:21;;;;;;;;;;;;;;;;;;4957420;28;20002;-74
2022/05/19 13:39:47;;;;;;;;;;;;;;;;;;4956760;28;19929;-78
2022/05/19 13:42:14;;;;;;;;;;;;;;;;;;4957159;28;19922;-74
2022/05/19 13:44:40;;;;;;;;;;;;;;;;;;4974711;28;19922;-74
2022/05/19 13:47:06;;;;;;;;;;;;;;;;;;4974748;28;19922;-75
2022/05/19 13:49:32;;;;;;;;;;;;;;;;;;4974751;28;19928;-74
2022/05/19 13:51:58;;;;;;;;;;;;;;;;;;4974835;28;20012;-74
2022/05/19 13:54:24;;;;;;;;;;;;;;;;;;4956904;28;19922;-73
2022/05/19 13:56:50;;;;;;;;;;;;;;;;;;4974727;28;19922;-74
2022/05/19 13:59:16;;;;;;;;;;;;;;;;;;4975078;28;19932;-74
2022/05/19 14:01:42;;;;;;;;;;;;;;;;;;4973107;28;19922;-75
2022/05/19 14:04:08;;;;;;;;;;;;;;;;;;4972577;28;19922;-75
2022/05/19 14:06:34;;;;;;;;;;;;;;;;;;4973013;28;19976;-75
2022/05/19 14:09:00;;;;;;;;;;;;;;;;;;4973567;28;19922;-74
2022/05/19 14:11:26;;;;;;;;;;;;;;;;;;4973768;28;19922;-76
2022/05/19 14:13:52;;;;;;;;;;;;;;;;;;4956360;28;20269;-74
2022/05/19 14:16:18;;;;;;;;;;;;;;;;;;4955679;28;19969;-75
2022/05/19 14:18:44;;;;;;;;;;;;;;;;;;4973642;28;19922;-75
2022/05/19 14:21:10;;;;;;;;;;;;;;;;;;4974325;28;20361;-75
2022/05/19 14:23:37;;;;;;;;;;;;;;;;;;4973974;28;20004;-76
2022/05/19 14:26:03;;;;;;;;;;;;;;;;;;4957204;28;20296;-76
2022/05/19 14:28:28;;;;;;;;;;;;;;;;;;4973459;28;19918;-75
2022/05/19 14:30:55;;;;;;;;;;;;;;;;;;4974308;28;19969;-76
2022/05/19 14:33:21;;;;;;;;;;;;;;;;;;4973897;28;20009;-77
2022/05/19 14:35:48;;;;;;;;;;;;;;;;;;4973810;28;20280;-74
2022/05/19 14:38:14;;;;;;;;;;;;;;;;;;4957172;28;20017;-76
2022/05/19 14:43:24;;;;;;;;;;;;;;;;;;4973690;28;19922;-74
2022/05/19 14:45:50;;;;;;;;;;;;;;;;;;4972577;28;19922;-76
2022/05/19 14:48:16;;;;;;;;;;;;;;;;;;4954992;28;19922;-74
2022/05/19 14:50:42;;;;;;;;;;;;;;;;;;4971304;28;19924;-77
2022/05/19 14:53:09;;;;;;;;;;;;;;;;;;4955476;28;19953;-76
2022/05/19 14:55:35;;;;;;;;;;;;;;;;;;4955096;28;19922;-75
2022/05/19 14:58:01;;;;;;;;;;;;;;;;;;4973210;28;19933;-74
2022/05/19 15:00:27;;;;;;;;;;;;;;;;;;4971843;28;19922;-75
2022/05/19 15:02:53;;;;;;;;;;;;;;;;;;4972079;28;19922;-76
2022/05/19 15:05:19;;;;;;;;;;;;;;;;;;4971647;28;19965;-75
2022/05/19 15:07:47;;;;;;;;;;;;;;;;;;4953886;28;19953;-75
2022/05/19 15:10:13;;;;;;;;;;;;;;;;;;4970872;28;20354;-74
2022/05/19 15:12:39;;;;;;;;;;;;;;;;;;4970292;28;19928;-74
2022/05/19 15:15:05;;;;;;;;;;;;;;;;;;4971419;28;19961;-75
2022/05/19 15:17:31;;;;;;;;;;;;;;;;;;4970985;28;20289;-76
2022/05/19 15:19:57;;;;;;;;;;;;;;;;;;4953954;28;20019;-74
2022/05/19 15:22:23;;;;;;;;;;;;;;;;;;4974266;28;20262;-76
2022/05/19 15:24:53;;;;;;;;;;;;;;;;;;4976650;28;19985;-78
2022/05/19 15:27:19;;;;;;;;;;;;;;;;;;4943899;28;19981;-74
2022/05/19 15:29:44;;;;;;;;;;;;;;;;;;4959103;28;19969;-75
2022/05/19 15:32:10;;;;;;;;;;;;;;;;;;4958194;28;19926;-75
2022/05/19 15:34:36;;;;;;;;;;;;;;;;;;4942530;28;19928;-74
2022/05/19 15:37:02;;;;;;;;;;;;;;;;;;4976924;28;19929;-79
2022/05/19 15:39:28;;;;;;;;;;;;;;;;;;4974933;28;19972;-76
2022/05/19 15:41:54;;;;;;;;;;;;;;;;;;4975520;28;20169;-75
2022/05/19 15:44:20;;;;;;;;;;;;;;;;;;4957938;28;19922;-75
2022/05/19 15:46:46;;;;;;;;;;;;;;;;;;4976039;28;19964;-73
2022/05/19 15:49:12;;;;;;;;;;;;;;;;;;4958537;28;19922;-75
2022/05/19 15:51:38;;;;;;;;;;;;;;;;;;4958690;28;19922;-73
2022/05/19 15:54:04;;;;;;;;;;;;;;;;;;4975957;28;20080;-74
2022/05/19 15:56:32;;;;;;;;;;;;;;;;;;4958825;28;19969;-74
2022/05/19 15:58:58;;;;;;;;;;;;;;;;;;4959344;28;19922;-74
2022/05/19 16:01:24;;;;;;;;;;;;;;;;;;4976659;28;19922;-73
2022/05/19 16:03:50;;;;;;;;;;;;;;;;;;4975849;28;20484;-73
2022/05/19 16:06:16;;;;;;;;;;;;;;;;;;4976424;28;20158;-73
2022/05/19 16:08:42;;;;;;;;;;;;;;;;;;4958841;28;20017;-74
2022/05/19 16:11:10;;;;;;;;;;;;;;;;;;4959276;28;20005;-74
2022/05/19 16:13:36;;;;;;;;;;;;;;;;;;4958039;28;19961;-74
2022/05/19 16:16:02;;;;;;;;;;;;;;;;;;4957974;28;20016;-75
2022/05/19 16:18:27;;;;;;;;;;;;;;;;;;4958368;28;19922;-74
2022/05/19 16:20:54;;;;;;;;;;;;;;;;;;4975597;28;19922;-74
2022/05/19 16:23:20;;;;;;;;;;;;;;;;;;4958217;28;19944;-74
2022/05/19 16:25:47;;;;;;;;;;;;;;;;;;4975515;28;19922;-74
2022/05/19 16:28:13;;;;;;;;;;;;;;;;;;4957808;28;19930;-74
2022/05/19 16:30:39;;;;;;;;;;;;;;;;;;4975073;28;20012;-73
2022/05/19 16:33:05;;;;;;;;;;;;;;;;;;4975011;28;20369;-77
2022/05/19 16:35:34;;;;;;;;;;;;;;;;;;4974393;28;19922;-75
2022/05/19 16:38:00;;;;;;;;;;;;;;;;;;4975928;28;19969;-79
2022/05/19 16:40:26;;;;;;;;;;;;;;;;;;4958430;28;19922;-77
2022/05/19 16:42:55;;;;;;;;;;;;;;;;;;4958390;28;19937;-75
2022/05/19 16:45:22;;;;;;;;;;;;;;;;;;4958952;28;20297;-76
2022/05/19 16:47:48;;;;;;;;;;;;;;;;;;4975364;28;19969;-75
2022/05/19 16:50:14;;;;;;;;;;;;;;;;;;4976503;28;20020;-75
2022/05/19 16:52:40;;;;;;;;;;;;;;;;;;4975998;28;20027;-76
2022/05/19 16:57:50;;;;;;;;;;;;;;;;;;4958521;28;19976;-75
2022/05/19 17:00:17;;;;;;;;;;;;;;;;;;4975862;28;19922;-75
2022/05/19 17:02:44;;;;;;;;;;;;;;;;;;4975194;28;19922;-74
2022/05/19 17:05:10;;;;;;;;;;;;;;;;;;4957759;28;19921;-75
2022/05/19 17:07:39;;;;;;;;;;;;;;;;;;4958005;28;19921;-74
2022/05/19 17:10:05;;;;;;;;;;;;;;;;;;4958686;28;19922;-75
2022/05/19 17:12:31;;;;;;;;;;;;;;;;;;4958313;28;20412;-75
2022/05/19 17:14:57;;;;;;;;;;;;;;;;;;4941719;28;19922;-77